AFV209 FQMA-FALE
Flight info
| Callsign | AFV209 |
|---|---|
| Flight time | 1h 0m |
| Altitude | 34000 |
| Route | TONKA1C TONKA UT949 IXESU UT915 GERAX UQ63 APMAT APMAT1A |
| Aircraft | A20N/M-SDE2E3FGHIRWXY/LB1 |
Departure
| Time | 2026-04-21 13:53 |
|---|---|
| Airport | Maputo Airport (FQMA) |
Arrival
| Time | 2026-04-21 14:53 |
|---|---|
| Airport | King Shaka International Airport (FALE) |
| Time | Latitude | Longitude | Altitude | Speed | Heading |
|---|---|---|---|---|---|
| 2026-04-21 13:48 | -25.92368 | 32.57374 | 129 ft | 0 kts | 119° |
| 2026-04-21 13:48 | -25.92368 | 32.57373 | 129 ft | 2 kts | 119° |
| 2026-04-21 13:48 | -25.92360 | 32.57357 | 129 ft | 2 kts | 127° |
| 2026-04-21 13:49 | -25.92346 | 32.57344 | 127 ft | 4 kts | 144° |
| 2026-04-21 13:49 | -25.92325 | 32.57326 | 124 ft | 4 kts | 168° |
| 2026-04-21 13:49 | -25.92313 | 32.57329 | 130 ft | 0 kts | 207° |
| 2026-04-21 13:51 | -25.92314 | 32.57329 | 130 ft | 0 kts | 207° |
| 2026-04-21 13:51 | -25.92316 | 32.57327 | 126 ft | 0 kts | 207° |
| 2026-04-21 13:51 | -25.92341 | 32.57308 | 128 ft | 22 kts | 212° |
| 2026-04-21 13:52 | -25.92493 | 32.57203 | 124 ft | 18 kts | 227° |
| 2026-04-21 13:52 | -25.92503 | 32.57129 | 123 ft | 8 kts | 290° |
| 2026-04-21 13:52 | -25.92422 | 32.57051 | 130 ft | 8 kts | 5° |
| 2026-04-21 13:52 | -25.92377 | 32.57075 | 128 ft | 25 kts | 27° |
| 2026-04-21 13:53 | -25.91934 | 32.57342 | 131 ft | 117 kts | 30° |
| 2026-04-21 13:53 | -25.91049 | 32.57898 | 469 ft | 161 kts | 30° |
| 2026-04-21 13:53 | -25.90008 | 32.58415 | 1416 ft | 167 kts | 13° |
| 2026-04-21 13:53 | -25.88826 | 32.58501 | 2153 ft | 175 kts | 352° |
| 2026-04-21 13:54 | -25.87669 | 32.58025 | 2648 ft | 188 kts | 324° |
| 2026-04-21 13:54 | -25.86893 | 32.56784 | 3089 ft | 206 kts | 283° |
| 2026-04-21 13:54 | -25.87069 | 32.55186 | 3700 ft | 220 kts | 241° |
| 2026-04-21 13:54 | -25.88144 | 32.53942 | 4310 ft | 236 kts | 219° |
| 2026-04-21 13:55 | -25.89516 | 32.52816 | 4899 ft | 254 kts | 217° |
| 2026-04-21 13:55 | -25.91022 | 32.51656 | 5494 ft | 272 kts | 216° |
| 2026-04-21 13:55 | -25.92622 | 32.50436 | 6218 ft | 283 kts | 217° |
| 2026-04-21 13:55 | -25.94254 | 32.49186 | 7056 ft | 287 kts | 217° |
| 2026-04-21 13:56 | -25.95904 | 32.47910 | 7938 ft | 290 kts | 217° |
| 2026-04-21 13:56 | -25.97555 | 32.46618 | 8808 ft | 292 kts | 217° |
| 2026-04-21 13:56 | -25.99222 | 32.45303 | 9667 ft | 295 kts | 217° |
| 2026-04-21 13:56 | -26.00900 | 32.43974 | 10438 ft | 298 kts | 217° |
| 2026-04-21 13:57 | -26.02594 | 32.42629 | 11196 ft | 301 kts | 218° |
| 2026-04-21 13:57 | -26.04303 | 32.41266 | 11952 ft | 304 kts | 218° |
| 2026-04-21 13:57 | -26.05997 | 32.39914 | 12682 ft | 307 kts | 218° |
| 2026-04-21 13:57 | -26.07713 | 32.38544 | 13421 ft | 310 kts | 218° |
| 2026-04-21 13:58 | -26.09473 | 32.37140 | 14108 ft | 313 kts | 218° |
| 2026-04-21 13:58 | -26.11253 | 32.35725 | 14755 ft | 316 kts | 218° |
| 2026-04-21 13:58 | -26.13050 | 32.34295 | 15399 ft | 319 kts | 219° |
| 2026-04-21 13:58 | -26.14862 | 32.32854 | 16036 ft | 322 kts | 219° |
| 2026-04-21 13:59 | -26.16692 | 32.31399 | 16669 ft | 325 kts | 219° |
| 2026-04-21 13:59 | -26.18516 | 32.29948 | 17292 ft | 328 kts | 219° |
| 2026-04-21 13:59 | -26.20401 | 32.28444 | 17926 ft | 331 kts | 220° |
| 2026-04-21 13:59 | -26.22280 | 32.26943 | 18503 ft | 334 kts | 220° |
| 2026-04-21 14:00 | -26.24152 | 32.25446 | 19038 ft | 337 kts | 220° |
| 2026-04-21 14:00 | -26.26065 | 32.23916 | 19583 ft | 340 kts | 220° |
| 2026-04-21 14:00 | -26.27993 | 32.22374 | 20123 ft | 342 kts | 221° |
| 2026-04-21 14:00 | -26.29935 | 32.20819 | 20656 ft | 345 kts | 221° |
| 2026-04-21 14:01 | -26.31893 | 32.19256 | 21195 ft | 348 kts | 221° |
| 2026-04-21 14:01 | -26.33870 | 32.17678 | 21716 ft | 351 kts | 221° |
| 2026-04-21 14:01 | -26.35860 | 32.16088 | 22221 ft | 354 kts | 221° |
| 2026-04-21 14:01 | -26.37894 | 32.14463 | 22738 ft | 356 kts | 221° |
| 2026-04-21 14:02 | -26.39891 | 32.12865 | 23260 ft | 359 kts | 221° |
| 2026-04-21 14:02 | -26.41957 | 32.11211 | 23723 ft | 362 kts | 222° |
| 2026-04-21 14:02 | -26.44006 | 32.09566 | 24151 ft | 365 kts | 222° |
| 2026-04-21 14:03 | -26.48133 | 32.06250 | 25003 ft | 366 kts | 222° |
| 2026-04-21 14:03 | -26.50208 | 32.04584 | 25420 ft | 368 kts | 223° |
| 2026-04-21 14:03 | -26.52295 | 32.02907 | 25890 ft | 370 kts | 223° |
| 2026-04-21 14:03 | -26.54393 | 32.01219 | 26356 ft | 373 kts | 223° |
| 2026-04-21 14:04 | -26.56500 | 31.99520 | 26843 ft | 375 kts | 223° |
| 2026-04-21 14:04 | -26.58618 | 31.97815 | 27295 ft | 376 kts | 223° |
| 2026-04-21 14:04 | -26.60749 | 31.96101 | 27763 ft | 379 kts | 223° |
| 2026-04-21 14:04 | -26.62895 | 31.94376 | 28234 ft | 381 kts | 223° |
| 2026-04-21 14:05 | -26.65049 | 31.92646 | 28698 ft | 382 kts | 224° |
| 2026-04-21 14:05 | -26.67217 | 31.90902 | 29170 ft | 384 kts | 224° |
| 2026-04-21 14:05 | -26.69387 | 31.89152 | 29625 ft | 386 kts | 224° |
| 2026-04-21 14:05 | -26.71573 | 31.87384 | 30074 ft | 388 kts | 224° |
| 2026-04-21 14:06 | -26.73767 | 31.85611 | 30452 ft | 390 kts | 224° |
| 2026-04-21 14:06 | -26.75978 | 31.83825 | 30820 ft | 393 kts | 224° |
| 2026-04-21 14:06 | -26.78106 | 31.82110 | 31162 ft | 395 kts | 224° |
| 2026-04-21 14:06 | -26.80317 | 31.80327 | 31512 ft | 398 kts | 224° |
| 2026-04-21 14:07 | -26.82572 | 31.78504 | 31860 ft | 400 kts | 224° |
| 2026-04-21 14:07 | -26.84832 | 31.76677 | 32198 ft | 402 kts | 224° |
| 2026-04-21 14:07 | -26.87107 | 31.74836 | 32526 ft | 404 kts | 225° |
| 2026-04-21 14:07 | -26.89392 | 31.72986 | 32852 ft | 406 kts | 225° |
| 2026-04-21 14:08 | -26.91684 | 31.71128 | 33176 ft | 408 kts | 225° |
| 2026-04-21 14:08 | -26.93995 | 31.69255 | 33507 ft | 410 kts | 225° |
| 2026-04-21 14:08 | -26.96314 | 31.67377 | 33821 ft | 412 kts | 225° |
| 2026-04-21 14:08 | -26.98638 | 31.65492 | 33979 ft | 413 kts | 225° |
| 2026-04-21 14:09 | -27.00967 | 31.63602 | 34011 ft | 412 kts | 225° |
| 2026-04-21 14:09 | -27.05613 | 31.59827 | 34009 ft | 412 kts | 225° |
| 2026-04-21 14:10 | -27.10251 | 31.56058 | 34014 ft | 411 kts | 225° |
| 2026-04-21 14:10 | -27.14880 | 31.52290 | 34011 ft | 411 kts | 225° |
| 2026-04-21 14:11 | -27.19482 | 31.48538 | 34010 ft | 412 kts | 226° |
| 2026-04-21 14:11 | -27.24124 | 31.44748 | 34013 ft | 412 kts | 226° |
| 2026-04-21 14:12 | -27.28788 | 31.40984 | 34012 ft | 417 kts | 221° |
| 2026-04-21 14:12 | -27.31412 | 31.39478 | 34014 ft | 431 kts | 210° |
| 2026-04-21 14:12 | -27.34352 | 31.38563 | 34012 ft | 448 kts | 198° |
| 2026-04-21 14:13 | -27.40680 | 31.38104 | 34002 ft | 459 kts | 191° |
| 2026-04-21 14:13 | -27.47046 | 31.37753 | 34000 ft | 457 kts | 192° |
| 2026-04-21 14:14 | -27.53394 | 31.37384 | 34007 ft | 457 kts | 192° |
| 2026-04-21 14:14 | -27.59749 | 31.37013 | 34005 ft | 457 kts | 192° |
| 2026-04-21 14:15 | -27.66109 | 31.36634 | 34000 ft | 458 kts | 192° |
| 2026-04-21 14:15 | -27.72477 | 31.36256 | 33994 ft | 458 kts | 192° |
| 2026-04-21 14:16 | -27.78850 | 31.35887 | 33997 ft | 459 kts | 193° |
| 2026-04-21 14:16 | -27.85192 | 31.35521 | 33978 ft | 460 kts | 193° |
| 2026-04-21 14:17 | -27.91576 | 31.35148 | 33974 ft | 459 kts | 193° |
| 2026-04-21 14:17 | -27.97954 | 31.34770 | 33974 ft | 461 kts | 193° |
| 2026-04-21 14:18 | -28.04372 | 31.34392 | 33954 ft | 461 kts | 193° |
| 2026-04-21 14:18 | -28.10785 | 31.34021 | 33955 ft | 460 kts | 193° |
| 2026-04-21 14:19 | -28.17189 | 31.33644 | 33954 ft | 461 kts | 193° |
| 2026-04-21 14:19 | -28.23604 | 31.33261 | 33948 ft | 462 kts | 193° |
| 2026-04-21 14:19 | -28.26771 | 31.32883 | 33947 ft | 449 kts | 203° |
| 2026-04-21 14:20 | -28.29701 | 31.31868 | 33948 ft | 433 kts | 215° |
| 2026-04-21 14:20 | -28.32290 | 31.30283 | 33947 ft | 417 kts | 225° |
| 2026-04-21 14:20 | -28.34696 | 31.28453 | 33944 ft | 416 kts | 225° |
| 2026-04-21 14:21 | -28.39498 | 31.24815 | 33944 ft | 418 kts | 225° |
| 2026-04-21 14:21 | -28.44358 | 31.21160 | 33945 ft | 419 kts | 225° |
| 2026-04-21 14:22 | -28.49226 | 31.17500 | 33945 ft | 419 kts | 225° |
| 2026-04-21 14:22 | -28.54090 | 31.13840 | 33934 ft | 420 kts | 226° |
| 2026-04-21 14:23 | -28.58960 | 31.10164 | 33931 ft | 420 kts | 226° |
| 2026-04-21 14:23 | -28.63011 | 31.07100 | 33929 ft | 421 kts | 226° |
| 2026-04-21 14:24 | -28.67878 | 31.03424 | 33921 ft | 419 kts | 226° |
| 2026-04-21 14:24 | -28.72741 | 30.99735 | 33917 ft | 419 kts | 226° |
| 2026-04-21 14:25 | -28.77609 | 30.96043 | 33908 ft | 420 kts | 226° |
| 2026-04-21 14:25 | -28.82458 | 30.92359 | 33905 ft | 419 kts | 226° |
| 2026-04-21 14:26 | -28.87309 | 30.88673 | 33908 ft | 418 kts | 226° |
| 2026-04-21 14:26 | -28.92162 | 30.85005 | 33907 ft | 418 kts | 226° |
| 2026-04-21 14:27 | -28.96992 | 30.81384 | 33904 ft | 418 kts | 226° |
| 2026-04-21 14:27 | -29.01401 | 30.78100 | 33904 ft | 418 kts | 226° |
| 2026-04-21 14:28 | -29.06268 | 30.74489 | 33909 ft | 417 kts | 226° |
| 2026-04-21 14:28 | -29.11128 | 30.70897 | 33916 ft | 416 kts | 226° |
| 2026-04-21 14:29 | -29.16003 | 30.67313 | 33915 ft | 420 kts | 226° |
| 2026-04-21 14:29 | -29.20910 | 30.63708 | 33905 ft | 416 kts | 226° |
| 2026-04-21 14:30 | -29.25783 | 30.60151 | 33914 ft | 415 kts | 226° |
| 2026-04-21 14:30 | -29.30650 | 30.56603 | 33916 ft | 414 kts | 226° |
| 2026-04-21 14:31 | -29.35520 | 30.53072 | 33915 ft | 414 kts | 226° |
| 2026-04-21 14:31 | -29.40396 | 30.49541 | 33917 ft | 414 kts | 226° |
| 2026-04-21 14:32 | -29.45259 | 30.46020 | 33918 ft | 413 kts | 226° |
| 2026-04-21 14:32 | -29.50134 | 30.42513 | 33922 ft | 413 kts | 226° |
| 2026-04-21 14:33 | -29.54986 | 30.39044 | 33919 ft | 414 kts | 226° |
| 2026-04-21 14:33 | -29.59873 | 30.35558 | 33926 ft | 413 kts | 226° |
| 2026-04-21 14:34 | -29.64766 | 30.32096 | 33927 ft | 413 kts | 225° |
| 2026-04-21 14:34 | -29.69676 | 30.28658 | 33929 ft | 413 kts | 225° |
| 2026-04-21 14:35 | -29.74600 | 30.25248 | 33927 ft | 413 kts | 225° |
| 2026-04-21 14:35 | -29.79538 | 30.21869 | 33930 ft | 415 kts | 224° |
| 2026-04-21 14:35 | -29.82269 | 30.20544 | 33915 ft | 442 kts | 207° |
| 2026-04-21 14:36 | -29.85420 | 30.20191 | 33648 ft | 472 kts | 187° |
| 2026-04-21 14:36 | -29.88697 | 30.21088 | 33161 ft | 498 kts | 164° |
| 2026-04-21 14:36 | -29.91666 | 30.23234 | 32656 ft | 513 kts | 141° |
| 2026-04-21 14:36 | -29.93940 | 30.26410 | 32156 ft | 516 kts | 118° |
| 2026-04-21 14:37 | -29.95205 | 30.30167 | 31706 ft | 504 kts | 95° |
| 2026-04-21 14:37 | -29.95398 | 30.34111 | 31053 ft | 486 kts | 73° |
| 2026-04-21 14:37 | -29.94541 | 30.37783 | 30313 ft | 468 kts | 57° |
| 2026-04-21 14:37 | -29.93400 | 30.41336 | 29372 ft | 480 kts | 62° |
| 2026-04-21 14:38 | -29.92454 | 30.45051 | 28300 ft | 483 kts | 66° |
| 2026-04-21 14:38 | -29.91658 | 30.48805 | 27214 ft | 481 kts | 69° |
| 2026-04-21 14:38 | -29.90919 | 30.52535 | 26236 ft | 474 kts | 69° |
| 2026-04-21 14:38 | -29.90166 | 30.56204 | 25324 ft | 467 kts | 69° |
| 2026-04-21 14:39 | -29.89700 | 30.59914 | 24452 ft | 472 kts | 85° |
| 2026-04-21 14:39 | -29.90098 | 30.63679 | 23452 ft | 479 kts | 103° |
| 2026-04-21 14:39 | -29.91378 | 30.67230 | 22133 ft | 481 kts | 122° |
| 2026-04-21 14:39 | -29.93440 | 30.70230 | 20875 ft | 474 kts | 141° |
| 2026-04-21 14:40 | -29.96069 | 30.72434 | 19499 ft | 464 kts | 158° |
| 2026-04-21 14:40 | -29.99049 | 30.73676 | 18127 ft | 449 kts | 176° |
| 2026-04-21 14:40 | -30.02091 | 30.73866 | 16581 ft | 429 kts | 193° |
| 2026-04-21 14:40 | -30.04910 | 30.73033 | 15109 ft | 410 kts | 210° |
| 2026-04-21 14:41 | -30.07227 | 30.71327 | 13718 ft | 394 kts | 227° |
| 2026-04-21 14:41 | -30.08880 | 30.68892 | 12337 ft | 378 kts | 246° |
| 2026-04-21 14:41 | -30.09628 | 30.66100 | 11371 ft | 355 kts | 265° |
| 2026-04-21 14:41 | -30.09454 | 30.63338 | 10448 ft | 339 kts | 286° |
| 2026-04-21 14:42 | -30.08373 | 30.61036 | 10084 ft | 317 kts | 309° |
| 2026-04-21 14:42 | -30.06711 | 30.59522 | 9960 ft | 295 kts | 328° |
| 2026-04-21 14:42 | -30.04819 | 30.58773 | 9642 ft | 287 kts | 346° |
| 2026-04-21 14:42 | -30.02822 | 30.58789 | 9001 ft | 291 kts | 7° |
| 2026-04-21 14:43 | -30.00905 | 30.59645 | 8576 ft | 299 kts | 28° |
| 2026-04-21 14:43 | -29.99337 | 30.61222 | 8199 ft | 302 kts | 49° |
| 2026-04-21 14:43 | -29.98178 | 30.63248 | 7863 ft | 302 kts | 55° |
| 2026-04-21 14:43 | -29.97058 | 30.65286 | 7523 ft | 299 kts | 54° |
| 2026-04-21 14:44 | -29.95947 | 30.67298 | 7229 ft | 295 kts | 54° |
| 2026-04-21 14:44 | -29.94848 | 30.69287 | 6920 ft | 293 kts | 55° |
| 2026-04-21 14:44 | -29.93760 | 30.71263 | 6614 ft | 290 kts | 55° |
| 2026-04-21 14:44 | -29.92682 | 30.73218 | 6323 ft | 288 kts | 55° |
| 2026-04-21 14:45 | -29.91611 | 30.75156 | 6006 ft | 285 kts | 55° |
| 2026-04-21 14:45 | -29.90583 | 30.77008 | 5700 ft | 282 kts | 55° |
| 2026-04-21 14:45 | -29.89532 | 30.78904 | 5392 ft | 279 kts | 55° |
| 2026-04-21 14:45 | -29.88494 | 30.80778 | 5111 ft | 276 kts | 54° |
| 2026-04-21 14:46 | -29.87469 | 30.82627 | 4833 ft | 273 kts | 55° |
| 2026-04-21 14:46 | -29.86451 | 30.84463 | 4542 ft | 270 kts | 55° |
| 2026-04-21 14:46 | -29.85446 | 30.86278 | 4235 ft | 267 kts | 55° |
| 2026-04-21 14:46 | -29.84447 | 30.88077 | 3908 ft | 266 kts | 55° |
| 2026-04-21 14:47 | -29.83457 | 30.89855 | 3579 ft | 263 kts | 56° |
| 2026-04-21 14:47 | -29.82475 | 30.91621 | 3295 ft | 259 kts | 55° |
| 2026-04-21 14:47 | -29.81525 | 30.93331 | 3168 ft | 248 kts | 55° |
| 2026-04-21 14:47 | -29.80578 | 30.94915 | 3064 ft | 232 kts | 45° |
| 2026-04-21 14:48 | -29.79397 | 30.96070 | 3015 ft | 208 kts | 35° |
| 2026-04-21 14:48 | -29.78317 | 30.96986 | 3015 ft | 178 kts | 35° |
| 2026-04-21 14:48 | -29.77405 | 30.97772 | 3011 ft | 154 kts | 36° |
| 2026-04-21 14:48 | -29.76556 | 30.98510 | 3017 ft | 152 kts | 36° |
| 2026-04-21 14:49 | -29.75710 | 30.99248 | 3018 ft | 153 kts | 36° |
| 2026-04-21 14:49 | -29.74864 | 30.99987 | 3008 ft | 151 kts | 36° |
| 2026-04-21 14:49 | -29.74030 | 31.00715 | 2947 ft | 150 kts | 36° |
| 2026-04-21 14:49 | -29.73189 | 31.01450 | 2804 ft | 151 kts | 35° |
| 2026-04-21 14:50 | -29.72650 | 31.01922 | 2691 ft | 143 kts | 36° |
| 2026-04-21 14:50 | -29.71599 | 31.02839 | 2465 ft | 143 kts | 34° |
| 2026-04-21 14:50 | -29.70847 | 31.03495 | 2299 ft | 140 kts | 36° |
| 2026-04-21 14:50 | -29.70067 | 31.04177 | 2113 ft | 141 kts | 36° |
| 2026-04-21 14:51 | -29.69279 | 31.04864 | 1929 ft | 140 kts | 36° |
| 2026-04-21 14:51 | -29.68505 | 31.05540 | 1748 ft | 139 kts | 37° |
| 2026-04-21 14:51 | -29.67735 | 31.06211 | 1572 ft | 140 kts | 39° |
| 2026-04-21 14:51 | -29.66957 | 31.06892 | 1397 ft | 140 kts | 36° |
| 2026-04-21 14:52 | -29.66194 | 31.07556 | 1222 ft | 137 kts | 39° |
| 2026-04-21 14:52 | -29.65422 | 31.08234 | 1039 ft | 138 kts | 38° |
| 2026-04-21 14:52 | -29.64664 | 31.08896 | 828 ft | 143 kts | 36° |
| 2026-04-21 14:52 | -29.63878 | 31.09587 | 658 ft | 137 kts | 41° |
| 2026-04-21 14:53 | -29.63127 | 31.10230 | 493 ft | 131 kts | 38° |
| 2026-04-21 14:53 | -29.62423 | 31.10843 | 337 ft | 128 kts | 37° |
| 2026-04-21 14:53 | -29.61767 | 31.11412 | 299 ft | 106 kts | 38° |
| 2026-04-21 14:53 | -29.61422 | 31.11722 | 305 ft | 34 kts | 39° |
| 2026-04-21 14:54 | -29.61331 | 31.11731 | 302 ft | 6 kts | 285° |
| 2026-04-21 14:54 | -29.61359 | 31.11635 | 303 ft | 16 kts | 242° |
| 2026-04-21 14:54 | -29.61405 | 31.11502 | 300 ft | 20 kts | 258° |
| 2026-04-21 14:54 | -29.61482 | 31.11420 | 301 ft | 16 kts | 214° |
| 2026-04-21 14:55 | -29.61581 | 31.11336 | 300 ft | 20 kts | 216° |
| 2026-04-21 14:55 | -29.61702 | 31.11231 | 299 ft | 23 kts | 227° |
| 2026-04-21 14:55 | -29.61755 | 31.11097 | 299 ft | 19 kts | 301° |
| 2026-04-21 14:55 | -29.61687 | 31.10961 | 297 ft | 19 kts | 266° |
| 2026-04-21 14:56 | -29.61764 | 31.10842 | 296 ft | 20 kts | 217° |
| 2026-04-21 14:56 | -29.61883 | 31.10738 | 299 ft | 23 kts | 217° |
| 2026-04-21 14:56 | -29.61955 | 31.10675 | 298 ft | 6 kts | 217° |
| 2026-04-21 14:56 | -29.61994 | 31.10633 | 298 ft | 8 kts | 246° |
| 2026-04-21 14:57 | -29.61972 | 31.10588 | 297 ft | 5 kts | 310° |
| 2026-04-21 14:57 | -29.61963 | 31.10574 | 296 ft | 0 kts | 308° |